Thompsonville, Michigan
Current Conditions -  °F | °C
As of 11:34 AM on Tuesday 21 Oct 2014 (Local Time) from KFKS Reporting Station
Broken Clouds Broken Clouds  
Wind Chill: 45°   Ceiling: 3100
Heat Index: 49°   Visibility: 10mi
Dew Point: 35°   Wind: 10mph
Humidity: 58%   Direction: 20°NNE
Pressure: 30.17"   Gusts: 21mph
Location:  44.52°N, 85.94°W
Report Text: KFKS 211534Z AUTO 02009G18KT 340V040 10SM BKN031 10/02 A3017 RMK AO2 T00970017
Loading
Personal Weather Stations






























Interactive Weather Map
Tropical Storm Tracking
New forecast layout! Learn more

10-Day Weather Forecast

Advertisements
Track Severe Weather on mobile